Terminal Aerodrome Forecast
Issued by NWS Atlanta, GA

Home | Current Version | Previous Version | Text Only | Print | Product List | Glossary On
Versions: 1 2 3 4 5 6 7 8 9 10 11 12 13 14 15 16 17 18
455
FTUS42 KFFC 251120
TAFMCN
TAF
KMCN 251120Z 2512/2612 25003KT P6SM SCT030 BKN250
      TEMPO 2512/2513 5SM BR
     FM251800 26006KT P6SM SCT140 OVC200
     FM260700 32004KT P6SM SKC=

USA.gov is the U.S. government's official web portal to all federal, state and local government web resources and services.